Time;durP1;ratioP1;P1;durP2;ratioP2;P2;SDS_P1;SDS_P2;PMS_P1;PMS_P2;Temp;Humidity;BMP_temperature;BMP_pressure;BME280_temperature;BME280_humidity;BME280_pressure;Samples;Min_cycle;Max_cycle;Signal;HPM_P1;HPM_P2
2024/03/09 00:00:17;;;;;;;21.43;18.13;;;4.30;99.90;;;;;;5109342;27;20040;-64
2024/03/09 00:02:52;;;;;;;21.70;18.13;;;4.30;99.90;;;;;;5143485;27;20091;-64
2024/03/09 00:05:19;;;;;;;20.95;17.95;;;4.30;99.90;;;;;;5112434;27;20473;-64
2024/03/09 00:07:46;;;;;;;22.58;18.10;;;4.30;99.90;;;;;;5131116;27;20441;-64
2024/03/09 00:10:11;;;;;;;23.73;19.38;;;4.20;99.90;;;;;;5133354;27;20182;-64
2024/03/09 00:12:40;;;;;;;22.33;18.33;;;4.20;99.90;;;;;;5130032;27;20558;-64
2024/03/09 00:15:09;;;;;;;22.00;18.95;;;4.20;99.90;;;;;;5110674;27;20499;-63
2024/03/09 00:17:39;;;;;;;20.92;18.05;;;4.10;99.90;;;;;;5129279;27;20042;-64
2024/03/09 00:20:06;;;;;;;23.92;19.35;;;4.10;99.90;;;;;;5145015;27;20050;-64
2024/03/09 00:22:32;;;;;;;25.10;19.30;;;4.10;99.90;;;;;;5127679;27;20130;-64
2024/03/09 00:24:57;;;;;;;23.42;18.02;;;4.10;99.90;;;;;;5145964;27;20125;-64
2024/03/09 00:27:24;;;;;;;22.85;18.75;;;4.10;99.90;;;;;;5129787;27;20065;-63
2024/03/09 00:29:56;;;;;;;27.02;18.83;;;4.10;99.90;;;;;;5112322;27;20040;-64
2024/03/09 00:32:23;;;;;;;23.10;17.95;;;4.20;99.90;;;;;;5126203;27;20035;-64
2024/03/09 00:34:50;;;;;;;22.40;18.02;;;4.10;99.90;;;;;;5127515;27;20043;-64
2024/03/09 00:37:16;;;;;;;23.35;17.80;;;4.10;99.90;;;;;;5114678;27;20392;-64
2024/03/09 00:39:42;;;;;;;20.65;18.35;;;4.00;99.90;;;;;;5111716;27;20043;-64
2024/03/09 00:42:20;;;;;;;22.60;17.08;;;4.00;99.90;;;;;;5149635;27;20425;-64
2024/03/09 00:44:46;;;;;;;23.02;17.77;;;4.00;99.90;;;;;;5110153;27;20476;-64
2024/03/09 00:47:14;;;;;;;22.13;17.50;;;3.90;99.90;;;;;;5124211;27;20035;-64
2024/03/09 00:49:40;;;;;;;22.20;17.55;;;4.00;99.90;;;;;;5145137;27;20032;-64
2024/03/09 00:52:06;;;;;;;22.95;16.95;;;3.90;99.90;;;;;;5108990;27;20485;-64
2024/03/09 00:54:34;;;;;;;22.17;18.33;;;3.90;99.90;;;;;;5122744;27;20080;-64
2024/03/09 00:56:59;;;;;;;20.55;17.38;;;3.90;99.90;;;;;;5144939;27;20503;-64
2024/03/09 00:59:25;;;;;;;22.30;17.20;;;3.80;99.90;;;;;;5105743;27;20039;-64
2024/03/09 01:01:51;;;;;;;22.35;18.23;;;3.90;99.90;;;;;;5105968;27;20524;-64
2024/03/09 01:04:17;;;;;;;22.20;17.58;;;3.80;99.90;;;;;;5109127;27;20042;-64
2024/03/09 01:06:42;;;;;;;24.33;18.48;;;3.80;99.90;;;;;;5144773;27;20066;-64
2024/03/09 01:09:10;;;;;;;23.05;17.75;;;3.80;99.90;;;;;;5106150;27;20492;-64
2024/03/09 01:11:36;;;;;;;21.55;17.98;;;3.70;99.90;;;;;;5110307;27;20122;-64
2024/03/09 01:14:01;;;;;;;21.80;18.85;;;3.80;99.90;;;;;;5124795;27;20078;-64
2024/03/09 01:16:29;;;;;;;21.50;17.10;;;3.70;99.90;;;;;;5109716;27;20626;-64
2024/03/09 01:18:55;;;;;;;20.95;17.40;;;3.70;99.90;;;;;;5141090;27;20059;-64
2024/03/09 01:21:21;;;;;;;22.70;17.33;;;3.70;99.90;;;;;;5127194;27;20046;-64
2024/03/09 01:23:47;;;;;;;24.27;17.55;;;3.70;99.90;;;;;;5106522;27;20065;-64
2024/03/09 01:26:13;;;;;;;20.90;17.48;;;3.70;99.90;;;;;;5131761;27;20408;-63
2024/03/09 01:28:39;;;;;;;21.40;16.83;;;3.70;99.90;;;;;;5139205;27;20035;-64
2024/03/09 01:31:10;;;;;;;21.73;17.80;;;3.60;99.90;;;;;;5107054;27;20051;-64
2024/03/09 01:33:36;;;;;;;20.65;15.55;;;3.60;99.90;;;;;;5132117;27;20744;-64
2024/03/09 01:36:02;;;;;;;23.55;19.33;;;3.60;99.90;;;;;;5142609;27;20042;-64
2024/03/09 01:38:28;;;;;;;22.80;18.35;;;3.60;99.90;;;;;;5111637;27;20514;-64
2024/03/09 01:40:53;;;;;;;20.33;16.90;;;3.60;99.90;;;;;;5129938;27;20039;-64
2024/03/09 01:43:20;;;;;;;22.77;16.98;;;3.60;99.90;;;;;;5147582;27;20046;-64
2024/03/09 01:45:46;;;;;;;22.95;18.08;;;3.60;99.90;;;;;;5123452;27;20381;-64
2024/03/09 01:48:13;;;;;;;23.48;17.52;;;3.60;99.90;;;;;;5128841;27;20038;-64
2024/03/09 01:50:40;;;;;;;20.50;16.48;;;3.60;99.90;;;;;;5138854;27;20043;-64
2024/03/09 01:53:07;;;;;;;20.75;17.08;;;3.60;99.90;;;;;;5143638;27;20092;-64
2024/03/09 01:55:35;;;;;;;23.05;16.75;;;3.60;99.90;;;;;;5111043;27;20121;-64
2024/03/09 01:58:03;;;;;;;20.58;17.08;;;3.60;99.90;;;;;;5109558;27;20123;-64
2024/03/09 02:00:30;;;;;;;22.20;16.95;;;3.60;99.90;;;;;;5105235;27;20122;-64
2024/03/09 02:02:56;;;;;;;22.70;17.63;;;3.60;99.90;;;;;;5109225;27;20050;-64
2024/03/09 02:05:24;;;;;;;20.25;16.95;;;3.60;99.90;;;;;;5129695;27;20063;-64
2024/03/09 02:07:50;;;;;;;22.33;17.27;;;3.50;99.90;;;;;;5103110;27;20054;-64
2024/03/09 02:10:18;;;;;;;21.02;16.95;;;3.50;99.90;;;;;;5108303;27;20396;-64
2024/03/09 02:12:44;;;;;;;22.55;16.95;;;3.50;99.90;;;;;;5109343;27;20046;-64
2024/03/09 02:15:17;;;;;;;21.73;16.92;;;3.40;99.90;;;;;;5124514;27;20040;-64
2024/03/09 02:17:43;;;;;;;23.63;18.63;;;3.40;99.90;;;;;;5139155;27;20043;-64
2024/03/09 02:20:11;;;;;;;19.23;15.75;;;3.40;99.90;;;;;;5108480;28;20470;-64
2024/03/09 02:22:40;;;;;;;21.35;16.60;;;3.40;99.90;;;;;;5147433;27;20047;-64
2024/03/09 02:25:07;;;;;;;21.98;15.68;;;3.40;99.90;;;;;;5143451;27;20062;-64
2024/03/09 02:27:32;;;;;;;22.45;17.38;;;3.40;99.90;;;;;;5118886;27;20087;-64
2024/03/09 02:29:58;;;;;;;23.85;17.30;;;3.40;99.90;;;;;;5104382;27;20454;-64
2024/03/09 02:32:24;;;;;;;22.80;18.00;;;3.30;99.90;;;;;;5109524;27;20039;-64
2024/03/09 02:34:49;;;;;;;23.05;17.30;;;3.30;99.90;;;;;;5122197;27;20964;-64
2024/03/09 02:37:18;;;;;;;22.13;17.52;;;3.30;99.90;;;;;;5113877;27;20393;-63
2024/03/09 02:39:45;;;;;;;20.80;17.15;;;3.30;99.90;;;;;;5103158;27;20046;-64
2024/03/09 02:42:11;;;;;;;22.58;17.80;;;3.30;99.90;;;;;;5109003;27;20035;-64
2024/03/09 02:44:40;;;;;;;22.85;18.23;;;3.30;99.90;;;;;;5109711;27;20035;-64
2024/03/09 02:47:06;;;;;;;23.95;17.33;;;3.30;99.90;;;;;;5142465;27;20508;-64
2024/03/09 02:49:31;;;;;;;26.08;18.52;;;3.20;99.90;;;;;;5124590;27;20035;-64
2024/03/09 02:51:58;;;;;;;22.88;16.83;;;3.20;99.90;;;;;;5105015;27;20039;-64
2024/03/09 02:54:23;;;;;;;23.15;16.77;;;3.20;99.90;;;;;;5141213;27;20048;-64
2024/03/09 02:56:49;;;;;;;22.73;16.92;;;3.30;99.90;;;;;;5126245;27;20096;-64
2024/03/09 02:59:16;;;;;;;23.40;16.95;;;3.20;99.90;;;;;;5139523;27;20738;-64
2024/03/09 03:01:42;;;;;;;22.48;17.88;;;3.20;99.90;;;;;;5123775;27;20041;-64
2024/03/09 03:04:07;;;;;;;22.60;17.52;;;3.20;99.90;;;;;;5115347;27;20381;-64
2024/03/09 03:06:33;;;;;;;21.15;17.73;;;3.20;99.90;;;;;;5111233;27;20675;-64
2024/03/09 03:09:05;;;;;;;22.27;17.20;;;3.10;99.90;;;;;;5110300;27;20039;-64
2024/03/09 03:11:35;;;;;;;23.02;17.00;;;3.20;99.90;;;;;;5111434;27;20044;-64
2024/03/09 03:14:01;;;;;;;20.98;17.80;;;3.20;99.90;;;;;;5127867;27;20031;-64
2024/03/09 03:16:28;;;;;;;22.80;17.90;;;3.10;99.90;;;;;;5141817;27;20062;-64
2024/03/09 03:18:58;;;;;;;22.13;17.90;;;3.10;99.90;;;;;;5122771;27;20922;-64
2024/03/09 03:21:25;;;;;;;20.23;17.05;;;3.10;99.90;;;;;;5109680;27;20043;-64
2024/03/09 03:23:54;;;;;;;19.38;16.40;;;3.00;99.90;;;;;;5129891;27;20031;-64
2024/03/09 03:26:21;;;;;;;25.15;19.20;;;3.10;99.90;;;;;;5148873;27;20038;-64
2024/03/09 03:28:48;;;;;;;26.15;18.67;;;3.10;99.90;;;;;;5104961;27;20077;-64
2024/03/09 03:31:16;;;;;;;23.73;18.13;;;3.00;99.90;;;;;;5125300;27;20081;-64
2024/03/09 03:33:42;;;;;;;23.70;18.17;;;3.00;99.90;;;;;;5130161;27;20118;-64
2024/03/09 03:36:15;;;;;;;24.30;18.45;;;3.10;99.90;;;;;;5114881;27;20046;-64
2024/03/09 03:38:41;;;;;;;21.73;17.77;;;3.00;99.90;;;;;;5145486;27;20134;-64
2024/03/09 03:41:09;;;;;;;25.35;18.40;;;3.00;99.90;;;;;;5114304;27;20540;-63
2024/03/09 03:43:35;;;;;;;21.77;17.25;;;3.00;99.90;;;;;;5142748;27;20091;-64
2024/03/09 03:46:01;;;;;;;23.38;18.83;;;3.00;99.90;;;;;;5128646;27;20571;-64
2024/03/09 03:48:29;;;;;;;21.85;18.45;;;2.90;99.90;;;;;;5133676;27;20042;-64
2024/03/09 03:50:58;;;;;;;24.60;18.10;;;2.90;99.90;;;;;;5111354;27;20054;-64
2024/03/09 03:53:24;;;;;;;24.63;19.80;;;2.90;99.90;;;;;;5128263;27;20043;-64
2024/03/09 03:55:50;;;;;;;22.33;18.80;;;2.80;99.90;;;;;;5113520;27;20043;-64
2024/03/09 03:58:17;;;;;;;23.67;18.42;;;2.80;99.90;;;;;;5125239;27;20042;-64
2024/03/09 04:00:44;;;;;;;23.40;18.38;;;2.80;99.90;;;;;;5096056;27;20039;-64
2024/03/09 04:03:11;;;;;;;24.25;19.30;;;2.80;99.90;;;;;;5130463;27;20070;-64
2024/03/09 04:05:38;;;;;;;25.45;19.77;;;2.80;99.90;;;;;;5112376;27;20066;-64
2024/03/09 04:08:06;;;;;;;23.00;18.73;;;2.80;99.90;;;;;;5110485;27;20130;-64
2024/03/09 04:10:32;;;;;;;23.98;19.05;;;2.80;99.90;;;;;;5147938;27;20492;-64
2024/03/09 04:12:58;;;;;;;23.33;18.67;;;2.80;99.90;;;;;;5115608;27;20055;-64
2024/03/09 04:15:26;;;;;;;24.00;19.55;;;2.80;99.90;;;;;;5113194;27;20102;-64
2024/03/09 04:17:52;;;;;;;24.08;19.20;;;2.70;99.90;;;;;;5145169;27;20062;-64
2024/03/09 04:20:18;;;;;;;23.02;18.77;;;2.80;99.90;;;;;;5148663;27;20042;-64
2024/03/09 04:22:45;;;;;;;24.50;18.75;;;2.80;99.90;;;;;;5117212;27;20031;-64
2024/03/09 04:25:11;;;;;;;24.85;19.60;;;2.80;99.90;;;;;;5118697;27;20063;-64
2024/03/09 04:27:38;;;;;;;25.88;19.88;;;2.70;99.90;;;;;;5111833;27;20039;-63
2024/03/09 04:30:05;;;;;;;24.40;19.38;;;2.70;99.90;;;;;;5142808;27;20051;-64
2024/03/09 04:32:30;;;;;;;26.25;19.45;;;2.60;99.90;;;;;;5115025;27;20039;-64
2024/03/09 04:34:57;;;;;;;23.17;18.85;;;2.60;99.90;;;;;;5129497;27;20042;-64
2024/03/09 04:37:25;;;;;;;24.45;19.48;;;2.60;99.90;;;;;;5112117;27;20039;-64
2024/03/09 04:39:58;;;;;;;23.23;19.08;;;2.50;99.90;;;;;;5110538;27;20122;-64
2024/03/09 04:42:25;;;;;;;27.27;19.30;;;2.50;99.90;;;;;;5142346;27;20036;-64
2024/03/09 04:44:54;;;;;;;27.02;19.45;;;2.50;99.90;;;;;;5111629;27;20075;-64
2024/03/09 04:47:20;;;;;;;26.85;20.30;;;2.50;99.90;;;;;;5145896;27;20046;-64
2024/03/09 04:49:47;;;;;;;26.20;20.88;;;2.40;99.90;;;;;;5147971;27;20035;-64
2024/03/09 04:52:13;;;;;;;27.40;19.98;;;2.40;99.90;;;;;;5113839;27;20074;-64
2024/03/09 04:54:45;;;;;;;28.23;20.98;;;2.50;99.90;;;;;;5111120;27;20043;-64
2024/03/09 04:57:17;;;;;;;28.25;20.23;;;2.40;99.90;;;;;;5122880;27;20047;-64
2024/03/09 04:59:43;;;;;;;25.40;21.08;;;2.50;99.90;;;;;;5140181;27;20058;-64
2024/03/09 05:02:09;;;;;;;25.83;20.90;;;2.50;99.90;;;;;;5117858;27;20039;-64
2024/03/09 05:04:35;;;;;;;25.40;20.75;;;2.50;99.90;;;;;;5129691;27;20046;-64
2024/03/09 05:07:03;;;;;;;23.60;20.27;;;2.40;99.90;;;;;;5145387;27;20042;-64
2024/03/09 05:09:29;;;;;;;24.52;20.48;;;2.50;99.90;;;;;;5124755;27;20039;-63
2024/03/09 05:11:55;;;;;;;25.98;19.88;;;2.40;99.90;;;;;;5109851;27;20103;-64
2024/03/09 05:14:21;;;;;;;24.42;20.15;;;2.40;99.90;;;;;;5126665;27;20039;-64
2024/03/09 05:16:47;;;;;;;26.08;20.33;;;2.40;99.90;;;;;;5125823;27;20409;-64
2024/03/09 05:19:12;;;;;;;26.23;20.73;;;2.30;99.90;;;;;;5142500;27;20107;-64
2024/03/09 05:21:38;;;;;;;24.20;20.33;;;2.40;99.90;;;;;;5128794;27;20035;-64
2024/03/09 05:24:05;;;;;;;25.80;19.45;;;2.30;99.90;;;;;;5111456;27;20111;-64
2024/03/09 05:26:34;;;;;;;23.63;19.42;;;2.30;99.90;;;;;;5105202;27;20047;-64
2024/03/09 05:29:00;;;;;;;28.05;21.85;;;2.30;99.90;;;;;;5123498;27;20033;-64
2024/03/09 05:31:27;;;;;;;27.08;20.85;;;2.30;99.90;;;;;;5143466;27;20047;-64
2024/03/09 05:33:55;;;;;;;27.05;21.02;;;2.20;99.90;;;;;;5125308;27;20091;-63
2024/03/09 05:36:21;;;;;;;26.33;21.35;;;2.10;99.90;;;;;;5113621;27;20042;-63
2024/03/09 05:38:50;;;;;;;27.40;21.70;;;2.20;99.90;;;;;;5120030;27;20396;-64
2024/03/09 05:41:16;;;;;;;24.25;20.23;;;2.10;99.90;;;;;;5145323;27;20461;-64
2024/03/09 05:43:49;;;;;;;27.10;20.90;;;2.10;99.90;;;;;;5101636;27;20042;-64
2024/03/09 05:46:17;;;;;;;27.17;20.52;;;2.10;99.90;;;;;;5120214;27;20035;-64
2024/03/09 05:48:44;;;;;;;26.13;21.33;;;2.00;99.90;;;;;;5133967;27;20044;-64
2024/03/09 05:51:11;;;;;;;27.95;21.35;;;2.10;99.90;;;;;;5120110;27;20031;-64
2024/03/09 05:53:38;;;;;;;25.48;20.70;;;2.00;99.90;;;;;;5118699;27;20047;-64
2024/03/09 05:56:05;;;;;;;30.25;22.15;;;2.00;99.90;;;;;;5134850;27;20050;-64
2024/03/09 05:58:34;;;;;;;27.33;20.77;;;2.00;99.90;;;;;;5120467;27;20045;-64
2024/03/09 06:00:59;;;;;;;28.45;21.63;;;2.00;99.90;;;;;;5100493;27;20123;-64
2024/03/09 06:03:26;;;;;;;28.38;21.35;;;1.90;99.90;;;;;;5116848;27;20129;-64
2024/03/09 06:05:55;;;;;;;30.92;23.38;;;1.90;99.90;;;;;;5102382;27;20034;-64
2024/03/09 06:08:21;;;;;;;30.33;23.05;;;1.90;99.90;;;;;;5135658;27;20053;-64
2024/03/09 06:10:50;;;;;;;30.13;21.85;;;1.90;99.90;;;;;;5102045;27;20067;-64
2024/03/09 06:13:18;;;;;;;30.15;22.98;;;1.90;99.90;;;;;;5103042;27;20046;-64
2024/03/09 06:15:48;;;;;;;32.65;22.30;;;1.90;99.90;;;;;;5116395;27;20720;-64
2024/03/09 06:18:16;;;;;;;27.08;21.80;;;2.00;99.90;;;;;;5119429;27;20035;-64
2024/03/09 06:20:46;;;;;;;26.83;22.27;;;2.00;99.90;;;;;;5102365;27;20039;-64
2024/03/09 06:23:12;;;;;;;29.15;23.13;;;2.00;99.90;;;;;;5133822;27;20028;-63
2024/03/09 06:25:40;;;;;;;30.58;23.42;;;2.10;99.90;;;;;;5133223;27;20050;-64
2024/03/09 06:28:08;;;;;;;27.77;21.35;;;2.20;99.90;;;;;;5132122;27;20105;-64
2024/03/09 06:30:36;;;;;;;28.67;22.73;;;2.50;99.90;;;;;;5116338;27;20031;-64
2024/03/09 06:33:02;;;;;;;26.35;21.90;;;2.90;99.90;;;;;;5104536;27;20035;-64
2024/03/09 06:35:28;;;;;;;26.73;21.10;;;3.10;99.90;;;;;;5116191;27;20100;-64
2024/03/09 06:38:04;;;;;;;27.02;21.67;;;3.20;99.90;;;;;;5120950;27;20042;-64
2024/03/09 06:40:32;;;;;;;26.23;21.52;;;3.30;99.90;;;;;;5101412;27;20040;-64
2024/03/09 06:42:59;;;;;;;31.73;20.40;;;3.50;99.90;;;;;;5099099;27;20043;-64
2024/03/09 06:45:29;;;;;;;28.63;21.90;;;3.90;99.90;;;;;;5100832;27;20035;-64
2024/03/09 06:47:57;;;;;;;24.88;20.08;;;4.40;99.90;;;;;;5116863;27;21032;-64
2024/03/09 06:50:23;;;;;;;23.08;20.42;;;5.00;99.90;;;;;;5134235;27;20047;-64
2024/03/09 06:52:49;;;;;;;24.55;19.33;;;5.40;99.90;;;;;;5099415;27;20508;-64
2024/03/09 06:55:15;;;;;;;22.85;19.15;;;5.60;99.90;;;;;;5124391;27;20040;-64
2024/03/09 06:57:46;;;;;;;22.23;19.77;;;5.80;99.90;;;;;;5144504;27;20043;-64
2024/03/09 07:00:13;;;;;;;25.90;19.25;;;5.80;99.90;;;;;;5124188;27;20042;-64
2024/03/09 07:02:41;;;;;;;22.08;19.33;;;5.90;99.90;;;;;;5144184;27;20521;-64
2024/03/09 07:05:10;;;;;;;24.70;20.40;;;5.90;99.90;;;;;;5127307;27;20032;-64
2024/03/09 07:07:40;;;;;;;23.23;19.08;;;5.90;99.90;;;;;;5147025;27;20499;-64
2024/03/09 07:10:09;;;;;;;23.70;20.17;;;5.80;99.90;;;;;;5125113;27;20039;-64
2024/03/09 07:12:39;;;;;;;21.90;18.75;;;5.80;99.90;;;;;;5145497;27;20492;-64
2024/03/09 07:15:15;;;;;;;25.90;19.25;;;5.80;99.90;;;;;;5114309;27;20047;-64
2024/03/09 07:17:41;;;;;;;;;;;6.00;99.90;;;;;;5149077;27;20043;-64
2024/03/09 07:20:13;;;;;;;;;;;6.00;99.90;;;;;;5113558;27;19916;-64
2024/03/09 07:22:43;;;;;;;22.83;18.95;;;6.00;99.90;;;;;;5140723;27;19924;-64
2024/03/09 07:25:10;;;;;;;26.75;19.42;;;6.30;99.90;;;;;;5127063;27;20067;-64
2024/03/09 07:27:37;;;;;;;25.25;20.05;;;6.30;99.90;;;;;;5138974;27;20134;-64
2024/03/09 07:30:08;;;;;;;23.30;20.67;;;6.30;99.90;;;;;;5121861;27;20035;-64
2024/03/09 07:32:34;;;;;;;26.70;20.23;;;6.00;99.90;;;;;;5106737;27;20053;-64
2024/03/09 07:35:00;;;;;;;24.10;19.48;;;5.90;99.90;;;;;;5142798;27;20262;-64
2024/03/09 07:37:26;;;;;;;25.35;20.42;;;5.70;99.90;;;;;;5107737;27;20046;-64
2024/03/09 07:39:53;;;;;;;24.35;20.42;;;5.40;99.90;;;;;;5103467;27;20035;-64
2024/03/09 07:42:19;;;;;;;26.25;21.15;;;5.30;99.90;;;;;;5123297;27;20035;-64
2024/03/09 07:44:45;;;;;;;29.15;21.35;;;5.10;99.90;;;;;;5106041;27;20471;-64
2024/03/09 07:47:11;;;;;;;27.40;20.95;;;5.00;99.90;;;;;;5143147;27;20217;-64
2024/03/09 07:49:37;;;;;;;26.05;21.58;;;4.90;99.90;;;;;;5139717;27;20147;-64
2024/03/09 07:52:05;;;;;;;25.80;21.35;;;4.80;99.90;;;;;;5116451;27;20518;-64
2024/03/09 07:54:31;;;;;;;26.33;20.85;;;4.70;99.90;;;;;;5104163;27;20050;-64
2024/03/09 07:56:58;;;;;;;28.58;21.02;;;4.60;99.90;;;;;;5102352;27;20388;-64
2024/03/09 07:59:25;;;;;;;25.35;22.13;;;4.50;99.90;;;;;;5100909;27;20105;-64
2024/03/09 08:01:50;;;;;;;25.38;20.83;;;4.60;99.90;;;;;;5103314;27;20039;-64
2024/03/09 08:04:17;;;;;;;24.85;21.77;;;4.60;99.90;;;;;;5104613;27;20484;-64
2024/03/09 08:06:47;;;;;;;26.65;22.40;;;4.60;99.90;;;;;;5112472;27;20123;-63
2024/03/09 08:09:13;;;;;;;26.40;22.13;;;4.60;99.90;;;;;;5143050;27;20078;-63
2024/03/09 08:11:40;;;;;;;28.02;21.23;;;4.60;99.90;;;;;;5109541;27;20035;-64
2024/03/09 08:14:06;;;;;;;24.15;20.92;;;4.70;99.90;;;;;;5104233;27;20057;-64
2024/03/09 08:16:33;;;;;;;28.52;21.65;;;4.70;99.90;;;;;;5134755;27;20051;-64
2024/03/09 08:18:58;;;;;;;27.02;20.55;;;4.80;99.90;;;;;;5139764;27;20081;-64
2024/03/09 08:21:24;;;;;;;27.10;21.38;;;4.90;99.90;;;;;;5126352;27;20298;-64
2024/03/09 08:23:52;;;;;;;27.65;22.75;;;4.80;99.90;;;;;;5109814;27;20489;-64
2024/03/09 08:26:18;;;;;;;25.10;21.38;;;4.90;99.90;;;;;;5145015;27;20032;-64
2024/03/09 08:28:44;;;;;;;25.52;20.30;;;4.90;99.90;;;;;;5107934;27;20107;-64
2024/03/09 08:31:09;;;;;;;25.25;20.75;;;4.80;99.90;;;;;;5108548;27;20042;-64
2024/03/09 08:33:35;;;;;;;25.40;21.15;;;4.70;99.90;;;;;;5103700;27;20070;-64
2024/03/09 08:36:02;;;;;;;26.85;21.67;;;4.80;99.90;;;;;;5112984;27;20825;-63
2024/03/09 08:38:28;;;;;;;25.60;21.08;;;4.90;99.90;;;;;;5106268;27;20054;-64
2024/03/09 08:40:54;;;;;;;25.23;21.33;;;5.00;99.90;;;;;;5107445;27;20043;-63
2024/03/09 08:43:20;;;;;;;27.25;21.55;;;5.00;99.90;;;;;;5123279;27;20049;-63
2024/03/09 08:45:48;;;;;;;26.25;21.17;;;5.10;99.90;;;;;;5111250;27;20046;-63
2024/03/09 08:48:13;;;;;;;26.15;21.98;;;5.10;99.90;;;;;;5127142;27;20104;-63
2024/03/09 08:50:39;;;;;;;25.60;20.88;;;5.20;99.90;;;;;;5107021;27;20043;-64
2024/03/09 08:53:05;;;;;;;25.90;20.90;;;5.20;99.90;;;;;;5127583;27;20068;-63
2024/03/09 08:55:32;;;;;;;27.27;21.27;;;5.30;99.90;;;;;;5106218;27;20126;-64
2024/03/09 08:58:00;;;;;;;28.33;21.05;;;5.30;99.90;;;;;;5106611;27;20130;-64
2024/03/09 09:00:26;;;;;;;25.13;20.83;;;5.50;99.90;;;;;;5095212;27;20039;-63
2024/03/09 09:02:56;;;;;;;24.23;21.13;;;5.50;99.90;;;;;;5150093;27;20036;-64
2024/03/09 09:05:22;;;;;;;23.92;20.70;;;5.70;99.90;;;;;;5128604;27;20035;-64
2024/03/09 09:07:48;;;;;;;26.48;21.45;;;5.80;99.90;;;;;;5144899;27;20095;-64
2024/03/09 09:10:15;;;;;;;25.90;20.45;;;5.90;99.90;;;;;;5098216;27;20500;-64
2024/03/09 09:12:41;;;;;;;26.95;20.98;;;5.80;99.90;;;;;;5126904;27;20035;-64
2024/03/09 09:15:08;;;;;;;24.98;21.45;;;5.80;99.90;;;;;;5128906;27;20035;-64
2024/03/09 09:17:34;;;;;;;25.52;19.63;;;5.80;99.90;;;;;;5126722;27;20047;-64
2024/03/09 09:20:00;;;;;;;25.95;20.50;;;5.80;99.90;;;;;;5110302;27;20038;-64
2024/03/09 09:22:26;;;;;;;24.30;19.50;;;5.80;99.90;;;;;;5130945;27;20122;-64
2024/03/09 09:24:56;;;;;;;27.10;21.83;;;5.90;99.90;;;;;;5143353;27;20075;-63
2024/03/09 09:27:23;;;;;;;23.35;20.85;;;5.90;99.90;;;;;;5113488;27;20122;-64
2024/03/09 09:29:49;;;;;;;25.67;20.77;;;6.00;99.90;;;;;;5122759;27;20540;-64
2024/03/09 09:32:14;;;;;;;22.95;20.08;;;6.10;99.90;;;;;;5145861;27;20074;-64
2024/03/09 09:34:40;;;;;;;24.08;19.15;;;6.10;99.90;;;;;;5112615;27;20130;-64
2024/03/09 09:37:12;;;;;;;26.80;20.48;;;6.10;99.90;;;;;;5108079;27;20134;-64
2024/03/09 09:39:38;;;;;;;24.73;20.05;;;6.20;99.90;;;;;;5144254;27;20560;-63
2024/03/09 09:42:04;;;;;;;23.50;20.60;;;6.20;99.90;;;;;;5113047;27;20484;-64
2024/03/09 09:44:30;;;;;;;26.10;20.60;;;6.20;99.90;;;;;;5128825;27;20039;-64
2024/03/09 09:46:56;;;;;;;26.17;21.50;;;6.30;99.90;;;;;;5128167;27;20059;-64
2024/03/09 09:49:22;;;;;;;24.58;21.42;;;6.40;99.90;;;;;;5107427;27;20035;-64
2024/03/09 09:51:56;;;;;;;22.20;19.85;;;6.50;99.90;;;;;;5128674;27;20122;-64
2024/03/09 09:54:26;;;;;;;23.67;20.77;;;6.60;99.90;;;;;;5110734;27;20044;-64
2024/03/09 09:56:56;;;;;;;21.05;18.65;;;6.80;99.90;;;;;;5110721;27;20043;-64
2024/03/09 09:59:22;;;;;;;25.50;18.23;;;6.90;99.90;;;;;;5123275;27;20039;-64
2024/03/09 10:01:48;;;;;;;22.48;19.80;;;6.90;99.90;;;;;;5124353;27;20042;-64
2024/03/09 10:04:16;;;;;;;21.42;19.23;;;7.00;99.90;;;;;;5140715;27;20397;-64
2024/03/09 10:06:41;;;;;;;23.45;18.77;;;7.10;99.90;;;;;;5108866;27;20042;-64
2024/03/09 10:09:07;;;;;;;24.80;20.52;;;7.10;99.90;;;;;;5124525;27;20031;-64
2024/03/09 10:11:33;;;;;;;24.75;20.00;;;7.10;99.90;;;;;;5127631;27;20593;-64
2024/03/09 10:14:00;;;;;;;23.17;20.67;;;7.20;99.90;;;;;;5124977;27;20035;-64
2024/03/09 10:16:28;;;;;;;21.23;18.98;;;7.20;99.90;;;;;;5146489;27;20039;-64
2024/03/09 10:18:55;;;;;;;21.90;19.63;;;7.20;99.90;;;;;;5139161;27;20042;-64
2024/03/09 10:21:37;;;;;;;23.33;20.55;;;7.40;99.90;;;;;;5128389;27;20063;-64
2024/03/09 10:24:12;;;;;;;24.60;19.23;;;7.60;99.90;;;;;;5112365;27;20043;-64
2024/03/09 10:26:37;;;;;;;21.40;18.65;;;7.80;99.90;;;;;;5146360;27;20035;-63
2024/03/09 10:29:04;;;;;;;23.55;20.13;;;7.80;99.90;;;;;;5108885;27;20054;-64
2024/03/09 10:31:30;;;;;;;24.25;20.13;;;7.80;99.90;;;;;;5126932;27;20066;-64
2024/03/09 10:33:57;;;;;;;22.50;19.15;;;8.00;99.90;;;;;;5113541;27;20050;-64
2024/03/09 10:36:25;;;;;;;22.88;19.58;;;8.10;99.90;;;;;;5130390;27;20425;-64
2024/03/09 10:38:51;;;;;;;21.90;18.70;;;8.10;99.90;;;;;;5111859;27;20035;-64
2024/03/09 10:41:25;;;;;;;23.48;20.70;;;8.10;99.90;;;;;;5127824;27;20040;-63
2024/03/09 10:43:53;;;;;;;23.00;20.50;;;8.10;99.90;;;;;;5148350;27;20079;-63
2024/03/09 10:46:32;;;;;;;26.38;19.42;;;8.10;99.90;;;;;;5109549;27;20036;-64
2024/03/09 10:48:58;;;;;;;22.63;19.42;;;8.10;99.90;;;;;;5109933;27;20055;-63
2024/03/09 10:51:36;;;;;;;21.65;19.42;;;8.20;99.90;;;;;;5112457;27;20088;-64
2024/03/09 10:54:31;;;;;;;23.80;19.33;;;8.30;99.90;;;;;;5143360;27;20093;-64
2024/03/09 10:56:58;;;;;;;23.15;19.40;;;8.20;99.90;;;;;;5132706;27;20042;-64
2024/03/09 10:59:27;;;;;;;25.15;19.42;;;8.10;99.90;;;;;;5128201;27;20055;-63
2024/03/09 11:01:55;;;;;;;21.48;19.20;;;8.10;99.90;;;;;;5108422;27;20039;-63
2024/03/09 11:04:21;;;;;;;21.58;19.25;;;8.10;99.90;;;;;;5149339;27;20117;-63
2024/03/09 11:06:47;;;;;;;21.63;19.33;;;8.10;99.90;;;;;;5112745;27;20126;-63
2024/03/09 11:09:17;;;;;;;22.38;19.98;;;8.00;99.90;;;;;;5150851;27;20042;-63
2024/03/09 11:11:45;;;;;;;21.80;19.13;;;8.00;99.90;;;;;;5126975;27;20562;-63
2024/03/09 11:14:15;;;;;;;23.58;19.75;;;7.90;99.90;;;;;;5125943;27;20039;-64
2024/03/09 11:16:41;;;;;;;23.67;18.42;;;7.80;99.90;;;;;;5144842;27;20077;-63
2024/03/09 11:19:13;;;;;;;22.25;19.83;;;7.80;99.90;;;;;;5130014;27;20042;-63
2024/03/09 11:21:39;;;;;;;23.20;19.20;;;7.80;99.90;;;;;;5111369;27;20043;-63
2024/03/09 11:24:11;;;;;;;23.10;18.95;;;7.80;99.90;;;;;;5149407;27;20397;-63
2024/03/09 11:26:50;;;;;;;24.20;18.90;;;7.90;99.90;;;;;;5109469;27;20039;-63
2024/03/09 11:29:17;;;;;;;22.73;20.33;;;8.00;99.90;;;;;;5106563;27;20043;-63
2024/03/09 11:31:43;;;;;;;24.98;20.25;;;8.30;99.90;;;;;;5112453;27;20450;-63
2024/03/09 11:34:22;;;;;;;21.27;18.38;;;8.50;99.90;;;;;;5126683;27;20035;-63
2024/03/09 11:36:52;;;;;;;23.52;19.25;;;8.70;99.90;;;;;;5144160;27;20044;-63
2024/03/09 11:39:31;;;;;;;20.95;18.73;;;8.80;99.90;;;;;;5109418;27;20054;-63
2024/03/09 11:42:00;;;;;;;20.55;18.30;;;8.90;99.90;;;;;;5146908;27;20084;-63
2024/03/09 11:44:33;;;;;;;22.63;19.58;;;9.00;99.90;;;;;;5110311;27;20426;-63
2024/03/09 11:47:00;;;;;;;20.50;18.08;;;9.00;99.90;;;;;;5112128;27;20122;-63
2024/03/09 11:49:27;;;;;;;19.90;17.75;;;9.10;99.90;;;;;;5142023;27;20050;-63
2024/03/09 11:51:55;;;;;;;19.55;17.50;;;9.10;99.90;;;;;;5112829;27;20082;-63
2024/03/09 11:54:21;;;;;;;21.35;19.05;;;9.20;99.90;;;;;;5128917;27;20134;-63
2024/03/09 11:56:47;;;;;;;20.38;17.35;;;9.20;99.90;;;;;;5111533;27;20043;-62
2024/03/09 11:59:14;;;;;;;19.65;17.60;;;9.30;99.90;;;;;;5109393;27;20039;-63
2024/03/09 12:01:40;;;;;;;19.98;17.85;;;9.40;99.90;;;;;;5117885;27;20041;-63
2024/03/09 12:04:07;;;;;;;19.92;17.73;;;9.50;99.90;;;;;;5145050;27;20495;-63
2024/03/09 12:06:33;;;;;;;21.45;18.13;;;9.60;99.90;;;;;;5130055;27;20040;-63
2024/03/09 12:08:59;;;;;;;19.25;16.67;;;9.60;99.90;;;;;;5121822;27;20088;-63
2024/03/09 12:11:32;;;;;;;19.48;16.55;;;9.60;99.90;;;;;;5110512;27;20082;-63
2024/03/09 12:13:58;;;;;;;21.20;17.08;;;9.70;99.90;;;;;;5109269;27;20047;-63
2024/03/09 12:16:29;;;;;;;19.77;17.73;;;9.80;99.90;;;;;;5122663;27;20434;-63
2024/03/09 12:18:57;;;;;;;20.17;18.08;;;9.80;99.90;;;;;;5125197;27;21361;-63
2024/03/09 12:21:28;;;;;;;19.33;16.77;;;9.80;99.90;;;;;;5126583;27;20034;-63
2024/03/09 12:24:01;;;;;;;19.30;17.20;;;9.90;99.90;;;;;;5141312;27;20477;-63
2024/03/09 12:26:28;;;;;;;19.95;16.50;;;9.90;99.90;;;;;;5142399;27;20089;-63
2024/03/09 12:28:57;;;;;;;18.58;16.67;;;9.90;99.90;;;;;;5123938;27;20068;-63
2024/03/09 12:31:25;;;;;;;19.42;17.50;;;9.90;99.90;;;;;;5111526;27;20039;-63
2024/03/09 12:33:52;;;;;;;19.58;17.58;;;10.00;99.90;;;;;;5125119;27;20036;-63
2024/03/09 12:36:17;;;;;;;19.75;17.70;;;10.10;99.90;;;;;;5124561;27;20034;-63
2024/03/09 12:38:44;;;;;;;19.55;17.55;;;10.10;99.90;;;;;;5120803;27;20527;-63